createdAt,value
2017-07-19T00:00:41.028Z,0
2017-07-19T00:01:55.654Z,0
2017-07-19T00:03:40.777Z,0
2017-07-19T00:04:55.711Z,0
2017-07-19T00:05:40.841Z,0
2017-07-19T00:06:55.757Z,0
2017-07-19T00:07:41.192Z,0
2017-07-19T00:08:41.234Z,0
2017-07-19T00:09:41.242Z,0
2017-07-19T00:10:40.973Z,0
2017-07-19T00:12:41.321Z,0
2017-07-19T00:13:41.329Z,0
2017-07-19T00:14:55.960Z,0
2017-07-19T00:15:41.076Z,0
2017-07-19T00:16:41.416Z,0
2017-07-19T00:17:41.460Z,0
2017-07-19T00:18:56.038Z,0
2017-07-19T00:20:41.479Z,0
2017-07-19T00:21:56.142Z,0
2017-07-19T00:22:41.577Z,0
2017-07-19T00:23:41.287Z,0
2017-07-19T00:24:40.997Z,0
2017-07-19T00:25:56.220Z,0
2017-07-19T00:26:41.667Z,0
2017-07-19T00:27:41.374Z,0
2017-07-19T00:28:41.413Z,0
2017-07-19T00:29:41.717Z,0
2017-07-19T00:31:56.074Z,0
2017-07-19T00:32:41.809Z,0
2017-07-19T00:33:41.513Z,0
2017-07-19T00:34:56.164Z,0
2017-07-19T00:35:41.558Z,0
2017-07-19T00:36:41.607Z,0
2017-07-19T00:37:41.599Z,0
2017-07-19T00:39:41.976Z,0
2017-07-19T00:40:41.686Z,0
2017-07-19T00:42:42.038Z,0
2017-07-19T00:43:41.812Z,0
2017-07-19T00:44:42.090Z,0
2017-07-19T00:45:41.813Z,0
2017-07-19T00:46:42.142Z,0
2017-07-19T00:47:56.780Z,0
2017-07-19T00:48:42.248Z,0
2017-07-19T00:49:42.211Z,0
2017-07-19T00:50:56.837Z,0
2017-07-19T00:51:41.641Z,0
2017-07-19T00:52:42.321Z,0
2017-07-19T00:53:42.294Z,0
2017-07-19T00:55:42.053Z,0
2017-07-19T00:56:42.091Z,0
2017-07-19T00:57:42.096Z,0
2017-07-19T00:58:42.444Z,0
2017-07-19T00:59:56.749Z,0
2017-07-19T01:00:56.771Z,0
2017-07-19T01:01:41.887Z,0
2017-07-19T01:02:56.511Z,0
2017-07-19T01:03:42.557Z,0
2017-07-19T01:04:57.192Z,0
2017-07-19T01:05:56.912Z,0
2017-07-19T01:06:57.221Z,0
2017-07-19T01:07:42.665Z,0
2017-07-19T01:08:42.676Z,0
2017-07-19T01:09:42.759Z,0
2017-07-19T01:10:42.406Z,0
2017-07-19T01:11:42.760Z,0
2017-07-19T01:12:42.470Z,0
2017-07-19T01:13:42.816Z,0
2017-07-19T01:14:57.474Z,0
2017-07-19T01:15:42.825Z,0
2017-07-19T01:16:42.877Z,0
2017-07-19T01:17:42.895Z,0
2017-07-19T01:18:42.926Z,0
2017-07-19T01:19:42.637Z,0
2017-07-19T01:20:42.983Z,0
2017-07-19T01:21:42.966Z,0
2017-07-19T01:22:57.608Z,0
2017-07-19T01:23:43.029Z,0
2017-07-19T01:24:43.053Z,0
2017-07-19T01:25:57.672Z,0
2017-07-19T01:26:57.713Z,0
2017-07-19T01:27:43.137Z,0
2017-07-19T01:28:57.758Z,0
2017-07-19T01:29:43.207Z,0
2017-07-19T01:30:57.489Z,0
2017-07-19T01:31:42.906Z,0
2017-07-19T01:32:42.938Z,0
2017-07-19T01:33:42.977Z,0
2017-07-19T01:34:42.998Z,0
2017-07-19T01:35:57.623Z,0
2017-07-19T01:36:43.355Z,0
2017-07-19T01:37:57.981Z,0
2017-07-19T01:38:57.687Z,0
2017-07-19T01:39:58.029Z,0
2017-07-19T01:40:57.734Z,0
2017-07-19T01:41:43.487Z,0
2017-07-19T01:42:58.101Z,0
2017-07-19T01:43:43.196Z,0
2017-07-19T01:44:43.230Z,0
2017-07-19T01:46:43.607Z,0
2017-07-19T01:47:43.603Z,0
2017-07-19T01:48:43.646Z,0
2017-07-19T01:49:43.643Z,0
2017-07-19T01:50:43.377Z,0
2017-07-19T01:51:43.707Z,0
2017-07-19T01:52:43.741Z,0
2017-07-19T01:53:43.734Z,0
2017-07-19T01:54:43.776Z,0
2017-07-19T01:55:58.416Z,0
2017-07-19T01:56:43.876Z,0
2017-07-19T01:57:58.139Z,0
2017-07-19T01:58:43.899Z,0
2017-07-19T01:59:43.877Z,0
2017-07-19T02:00:43.927Z,0
2017-07-19T02:01:58.535Z,0
2017-07-19T02:02:58.617Z,0
2017-07-19T02:03:58.627Z,0
2017-07-19T02:04:44.016Z,0
2017-07-19T02:05:44.056Z,0
2017-07-19T02:06:44.076Z,0
2017-07-19T02:07:44.099Z,0
2017-07-19T02:08:44.109Z,0
2017-07-19T02:09:58.443Z,0
2017-07-19T02:10:44.182Z,0
2017-07-19T02:11:44.186Z,0
2017-07-19T02:12:44.219Z,0
2017-07-19T02:13:44.215Z,0
2017-07-19T02:14:44.275Z,0
2017-07-19T02:15:58.891Z,0
2017-07-19T02:16:58.913Z,0
2017-07-19T02:17:44.353Z,0
2017-07-19T02:18:44.360Z,0
2017-07-19T02:20:58.699Z,0
2017-07-19T02:21:44.463Z,0
2017-07-19T02:22:44.157Z,0
2017-07-19T02:23:59.075Z,0
2017-07-19T02:24:44.488Z,0
2017-07-19T02:25:58.821Z,0
2017-07-19T02:26:44.548Z,0
2017-07-19T02:27:44.580Z,0
2017-07-19T02:28:59.183Z,0
2017-07-19T02:29:59.237Z,0
2017-07-19T02:30:44.638Z,0
2017-07-19T02:31:44.664Z,0
2017-07-19T02:32:59.310Z,0
2017-07-19T02:33:44.094Z,0
2017-07-19T02:34:44.447Z,0
2017-07-19T02:35:44.154Z,0
2017-07-19T02:36:44.794Z,0
2017-07-19T02:37:44.487Z,0
2017-07-19T02:38:44.857Z,0
2017-07-19T02:39:44.866Z,0
2017-07-19T02:40:44.892Z,0
2017-07-19T02:42:44.615Z,0
2017-07-19T02:43:44.984Z,0
2017-07-19T02:44:44.978Z,0
2017-07-19T02:45:45.010Z,0
2017-07-19T02:46:45.011Z,0
2017-07-19T02:47:45.062Z,0
2017-07-19T02:48:45.065Z,0
2017-07-19T02:49:59.685Z,0
2017-07-19T02:51:14.319Z,0
2017-07-19T02:51:44.857Z,0
2017-07-19T02:52:44.850Z,0
2017-07-19T02:53:44.890Z,0
2017-07-19T02:54:45.222Z,0
2017-07-19T02:55:45.249Z,0
2017-07-19T02:56:45.239Z,0
2017-07-19T02:57:59.906Z,0
2017-07-19T02:59:45.337Z,0
2017-07-19T03:00:45.356Z,0
2017-07-19T03:01:45.049Z,5
2017-07-19T03:03:45.422Z,5
2017-07-19T03:05:45.184Z,5
2017-07-19T03:06:45.492Z,5
2017-07-19T03:07:45.528Z,5
2017-07-19T03:08:45.535Z,5
2017-07-19T03:09:45.577Z,5
2017-07-19T03:10:45.591Z,5
2017-07-19T03:11:45.631Z,10
2017-07-19T03:13:00.243Z,10
2017-07-19T03:14:45.662Z,10
2017-07-19T03:15:45.732Z,10
2017-07-19T03:16:45.736Z,10
2017-07-19T03:17:45.758Z,10
2017-07-19T03:18:45.781Z,15
2017-07-19T03:19:45.817Z,15
2017-07-19T03:20:45.824Z,15
2017-07-19T03:21:45.868Z,15
2017-07-19T03:22:45.860Z,15
2017-07-19T03:23:45.911Z,15
2017-07-19T03:25:00.517Z,20
2017-07-19T03:25:45.947Z,20
2017-07-19T03:26:45.979Z,20
2017-07-19T03:27:46.002Z,20
2017-07-19T03:29:46.055Z,25
2017-07-19T03:30:46.078Z,25
2017-07-19T03:31:46.112Z,25
2017-07-19T03:32:46.101Z,25
2017-07-19T03:33:45.843Z,30
2017-07-19T03:34:45.536Z,30
2017-07-19T03:35:46.187Z,30
2017-07-19T03:36:46.211Z,30
2017-07-19T03:37:46.262Z,35
2017-07-19T03:38:46.904Z,35
2017-07-19T03:39:46.274Z,35
2017-07-19T03:41:46.030Z,40
2017-07-19T03:42:46.036Z,40
2017-07-19T03:43:46.060Z,40
2017-07-19T03:45:00.677Z,40
2017-07-19T03:45:46.105Z,45
2017-07-19T03:46:46.131Z,45
2017-07-19T03:48:00.774Z,45
2017-07-19T03:48:46.513Z,50
2017-07-19T03:49:46.511Z,50
2017-07-19T03:50:46.244Z,55
2017-07-19T03:52:46.604Z,95
2017-07-19T03:54:00.891Z,80
2017-07-19T03:54:46.686Z,70
2017-07-19T03:55:46.347Z,80
2017-07-19T03:56:46.692Z,70
2017-07-19T03:57:46.390Z,70
2017-07-19T03:58:46.700Z,85
2017-07-19T03:59:46.760Z,75
2017-07-19T04:01:01.400Z,70
2017-07-19T04:02:46.816Z,75
2017-07-19T04:03:46.554Z,80
2017-07-19T04:04:46.243Z,75
2017-07-19T04:05:46.886Z,80
2017-07-19T04:06:46.917Z,80
2017-07-19T04:07:46.942Z,85
2017-07-19T04:08:46.970Z,80
2017-07-19T04:09:47.039Z,85
2017-07-19T04:10:47.020Z,90
2017-07-19T04:11:47.055Z,95
2017-07-19T04:12:46.739Z,100
2017-07-19T04:13:47.112Z,90
2017-07-19T04:14:47.109Z,95
2017-07-19T04:15:47.179Z,100
2017-07-19T04:17:01.453Z,100
2017-07-19T04:17:46.896Z,135
2017-07-19T04:18:47.215Z,205
2017-07-19T04:20:01.831Z,270
2017-07-19T04:20:47.266Z,290
2017-07-19T04:21:46.997Z,200
2017-07-19T04:22:47.323Z,190
2017-07-19T04:23:47.342Z,155
2017-07-19T04:25:01.965Z,120
2017-07-19T04:25:47.370Z,120
2017-07-19T04:26:47.395Z,115
2017-07-19T04:27:47.404Z,115
2017-07-19T04:28:47.435Z,120
2017-07-19T04:29:47.483Z,115
2017-07-19T04:30:47.512Z,130
2017-07-19T04:31:47.546Z,170
2017-07-19T04:33:02.155Z,275
2017-07-19T04:33:47.583Z,260
2017-07-19T04:35:47.626Z,160
2017-07-19T04:36:47.652Z,145
2017-07-19T04:37:47.650Z,140
2017-07-19T04:39:02.295Z,150
2017-07-19T04:39:47.721Z,175
2017-07-19T04:40:47.441Z,165
2017-07-19T04:41:47.786Z,145
2017-07-19T04:42:47.789Z,150
2017-07-19T04:44:02.108Z,375
2017-07-19T04:44:47.828Z,575
2017-07-19T04:45:47.868Z,535
2017-07-19T04:48:02.526Z,705
2017-07-19T04:48:47.333Z,805
2017-07-19T04:49:47.956Z,820
2017-07-19T04:51:02.591Z,900
2017-07-19T04:52:02.290Z,900
2017-07-19T04:52:48.034Z,880
2017-07-19T04:53:48.073Z,905
2017-07-19T04:54:48.106Z,880
2017-07-19T04:55:48.136Z,885
2017-07-19T04:56:48.138Z,860
2017-07-19T04:57:48.157Z,860
2017-07-19T04:58:48.279Z,960
2017-07-19T04:59:47.937Z,1070
2017-07-19T05:00:48.258Z,1100
2017-07-19T05:02:02.888Z,1090
2017-07-19T05:03:02.297Z,1095
2017-07-19T05:04:02.958Z,1080
2017-07-19T05:04:48.058Z,1105
2017-07-19T05:05:48.413Z,1150
2017-07-19T05:06:47.811Z,1125
2017-07-19T05:07:48.152Z,1150
2017-07-19T05:08:48.169Z,1195
2017-07-19T05:09:48.533Z,1205
2017-07-19T05:10:48.569Z,1190
2017-07-19T05:11:48.614Z,1180
2017-07-19T05:12:48.300Z,1195
2017-07-19T05:13:48.654Z,1210
2017-07-19T05:14:48.658Z,1220
2017-07-19T05:16:03.318Z,1230
2017-07-19T05:16:48.730Z,1215
2017-07-19T05:17:48.775Z,1225
2017-07-19T05:18:48.769Z,1215
2017-07-19T05:20:03.449Z,1190
2017-07-19T05:21:03.150Z,1155
2017-07-19T05:22:03.542Z,1180
2017-07-19T05:22:48.956Z,1245
2017-07-19T05:23:48.657Z,1270
2017-07-19T05:24:48.997Z,1220
2017-07-19T05:25:49.026Z,1235
2017-07-19T05:27:03.686Z,1275
2017-07-19T05:27:49.098Z,1290
2017-07-19T05:28:48.830Z,1255
2017-07-19T05:29:49.177Z,1265
2017-07-19T05:30:49.180Z,1260
2017-07-19T05:31:49.249Z,1300
2017-07-19T05:32:49.293Z,1305
2017-07-19T05:33:49.300Z,1300
2017-07-19T05:35:03.629Z,1360
2017-07-19T05:36:03.634Z,1350
2017-07-19T05:36:49.430Z,1335
2017-07-19T05:37:49.429Z,1305
2017-07-19T05:38:49.183Z,1310
2017-07-19T05:39:49.524Z,1335
2017-07-19T05:41:04.189Z,1320
2017-07-19T05:41:49.257Z,1310
2017-07-19T05:42:49.582Z,1325
2017-07-19T05:43:49.652Z,1325
2017-07-19T05:44:49.678Z,1345
2017-07-19T05:45:49.431Z,1330
2017-07-19T05:46:49.749Z,1335
2017-07-19T05:48:04.403Z,1360
2017-07-19T05:48:49.501Z,1355
2017-07-19T05:49:49.559Z,1325
2017-07-19T05:51:04.497Z,1320
2017-07-19T05:53:49.998Z,1290
2017-07-19T05:55:50.064Z,1350
2017-07-19T05:56:49.492Z,1335
2017-07-19T05:57:49.838Z,1305
2017-07-19T05:58:49.866Z,1260
2017-07-19T05:59:50.205Z,1290
2017-07-19T06:01:19.458Z,1325
2017-07-19T06:01:50.304Z,1300
2017-07-19T06:03:04.931Z,1330
2017-07-19T06:03:50.071Z,1320
2017-07-19T06:04:50.383Z,1310
2017-07-19T06:06:50.463Z,1275
2017-07-19T06:08:05.110Z,1300
2017-07-19T06:08:50.539Z,1270
2017-07-19T06:09:50.599Z,1280
2017-07-19T06:11:50.658Z,1300
2017-07-19T06:12:50.688Z,1310
2017-07-19T06:13:50.720Z,1300
2017-07-19T06:14:50.783Z,1245
2017-07-19T06:15:50.801Z,1240
2017-07-19T06:17:05.458Z,1245
2017-07-19T06:18:05.493Z,1250
2017-07-19T06:18:50.897Z,1230
2017-07-19T06:19:50.642Z,1250
2017-07-19T06:20:50.967Z,1260
2017-07-19T06:21:50.405Z,1250
2017-07-19T06:23:05.679Z,1195
2017-07-19T06:23:51.098Z,1215
2017-07-19T06:24:51.148Z,1250
2017-07-19T06:25:51.177Z,1295
2017-07-19T06:26:51.231Z,1315
2017-07-19T06:27:51.260Z,1355
2017-07-19T06:28:51.294Z,1280
2017-07-19T06:29:51.300Z,1295
2017-07-19T06:30:51.335Z,1320
2017-07-19T06:31:51.379Z,1310
2017-07-19T06:32:51.438Z,1270
2017-07-19T06:33:51.167Z,1280
2017-07-19T06:34:50.879Z,1265
2017-07-19T06:36:05.854Z,1200
2017-07-19T06:36:51.601Z,1285
2017-07-19T06:37:51.628Z,1295
2017-07-19T06:38:51.646Z,1275
2017-07-19T06:39:51.088Z,1290
2017-07-19T06:41:06.038Z,1245
2017-07-19T06:41:51.770Z,1240
2017-07-19T06:42:51.803Z,1265
2017-07-19T06:44:06.436Z,1215
2017-07-19T06:46:51.658Z,1240
2017-07-19T06:47:51.999Z,1245
2017-07-19T06:48:52.046Z,1255
2017-07-19T06:49:51.758Z,1220
2017-07-19T06:51:51.511Z,1135
2017-07-19T06:52:52.184Z,1155
2017-07-19T06:53:52.211Z,1180
2017-07-19T06:55:06.873Z,1160
2017-07-19T06:56:06.905Z,1140
2017-07-19T06:56:52.351Z,1160
2017-07-19T06:57:51.767Z,1150
2017-07-19T06:58:52.402Z,1100
2017-07-19T06:59:52.453Z,1060
2017-07-19T07:00:51.849Z,985
2017-07-19T07:01:52.224Z,980
2017-07-19T07:02:52.267Z,1000
2017-07-19T07:04:07.226Z,980
2017-07-19T07:04:52.644Z,970
2017-07-19T07:05:52.373Z,910
2017-07-19T07:06:52.412Z,870
2017-07-19T07:07:52.732Z,860
2017-07-19T07:08:52.482Z,840
2017-07-19T07:09:52.845Z,775
2017-07-19T07:11:06.863Z,730
2017-07-19T07:11:52.910Z,705
2017-07-19T07:12:52.932Z,680
2017-07-19T07:13:52.956Z,665
2017-07-19T07:14:53.023Z,645
2017-07-19T07:16:07.345Z,625
2017-07-19T07:16:53.120Z,570
2017-07-19T07:17:52.513Z,500
2017-07-19T07:18:53.157Z,490
2017-07-19T07:19:53.206Z,595
2017-07-19T07:20:52.954Z,620
2017-07-19T07:21:53.286Z,600
2017-07-19T07:22:53.007Z,640
2017-07-19T07:23:53.339Z,650
2017-07-19T07:24:53.410Z,700
2017-07-19T07:25:53.434Z,765
2017-07-19T07:27:22.065Z,930
2017-07-19T07:27:53.520Z,1065
2017-07-19T07:29:08.164Z,1505
2017-07-19T07:29:53.280Z,1590
2017-07-19T07:31:08.218Z,1395
2017-07-19T07:31:53.687Z,980
2017-07-19T07:32:53.699Z,900
2017-07-19T07:34:08.354Z,1060
2017-07-19T07:34:53.794Z,1075
2017-07-19T07:35:53.834Z,1040
2017-07-19T07:36:53.875Z,1040
2017-07-19T07:37:53.881Z,1085
2017-07-19T07:38:53.940Z,1095
2017-07-19T07:39:53.978Z,1115
2017-07-19T07:40:53.713Z,1120
2017-07-19T07:41:54.043Z,1065
2017-07-19T07:43:08.382Z,1020
2017-07-19T07:44:08.414Z,985
2017-07-19T07:44:54.186Z,950
2017-07-19T07:45:54.201Z,935
2017-07-19T07:46:54.242Z,965
2017-07-19T07:49:08.937Z,930
2017-07-19T07:49:53.742Z,920
2017-07-19T07:50:54.100Z,895
2017-07-19T07:52:09.035Z,880
2017-07-19T07:52:54.474Z,890
2017-07-19T07:53:54.197Z,865
2017-07-19T07:54:54.229Z,850
2017-07-19T07:55:54.285Z,855
2017-07-19T07:58:09.298Z,845
2017-07-19T07:59:09.305Z,840
2017-07-19T07:59:54.734Z,835
2017-07-19T08:00:54.773Z,830
2017-07-19T08:01:54.481Z,835
2017-07-19T08:04:08.918Z,825
2017-07-19T08:04:54.959Z,805
2017-07-19T08:06:54.373Z,760
2017-07-19T08:08:09.636Z,730
2017-07-19T08:09:54.496Z,740
2017-07-19T08:10:54.523Z,730
2017-07-19T08:11:55.197Z,725
2017-07-19T08:13:09.828Z,710
2017-07-19T08:13:55.257Z,690
2017-07-19T08:14:55.000Z,690
2017-07-19T08:15:55.050Z,670
2017-07-19T08:16:54.753Z,670
2017-07-19T08:18:54.830Z,655
2017-07-19T08:20:10.097Z,640
2017-07-19T08:21:10.126Z,620
2017-07-19T08:23:09.611Z,600
2017-07-19T08:23:55.028Z,595
2017-07-19T08:24:55.723Z,580
2017-07-19T08:25:55.704Z,565
2017-07-19T08:27:55.803Z,510
2017-07-19T08:28:55.846Z,545
2017-07-19T08:30:10.181Z,550
2017-07-19T08:31:55.648Z,535
2017-07-19T08:32:55.979Z,520
2017-07-19T08:33:55.720Z,520
2017-07-19T08:34:56.049Z,515
2017-07-19T08:35:55.825Z,510
2017-07-19T08:37:10.733Z,500
2017-07-19T08:37:55.864Z,495
2017-07-19T08:38:56.217Z,490
2017-07-19T08:40:10.857Z,485
2017-07-19T08:40:56.275Z,480
2017-07-19T08:42:56.331Z,470
2017-07-19T08:44:10.978Z,465
2017-07-19T08:44:56.127Z,460
2017-07-19T08:46:11.081Z,455
2017-07-19T08:46:56.243Z,450
2017-07-19T08:47:56.549Z,450
2017-07-19T08:49:10.891Z,445
2017-07-19T08:49:56.623Z,445
2017-07-19T08:50:56.672Z,440
2017-07-19T08:51:56.701Z,445
2017-07-19T08:52:56.763Z,445
2017-07-19T08:53:56.739Z,440
2017-07-19T08:55:11.106Z,440
2017-07-19T08:56:11.137Z,440
2017-07-19T08:56:56.588Z,445
2017-07-19T08:57:56.625Z,440
2017-07-19T08:58:57.264Z,440
2017-07-19T09:00:11.586Z,445
2017-07-19T09:00:56.994Z,440
2017-07-19T09:02:26.277Z,440
2017-07-19T09:02:56.776Z,435
2017-07-19T09:03:57.148Z,430
2017-07-19T09:05:57.208Z,420
2017-07-19T09:06:57.225Z,420
2017-07-19T09:08:11.592Z,415
2017-07-19T09:08:56.699Z,415
2017-07-19T09:09:57.376Z,415
2017-07-19T09:10:57.070Z,405
2017-07-19T09:12:11.728Z,400
2017-07-19T09:13:57.193Z,380
2017-07-19T09:15:57.264Z,355
2017-07-19T09:16:57.639Z,340
2017-07-19T09:18:12.243Z,325
2017-07-19T09:19:12.279Z,320
2017-07-19T09:20:12.333Z,320
2017-07-19T09:20:57.442Z,315
2017-07-19T09:22:12.403Z,315
2017-07-19T09:22:57.832Z,315
2017-07-19T09:23:57.863Z,310
2017-07-19T09:24:57.577Z,310
2017-07-19T09:25:57.929Z,310
2017-07-19T09:26:57.994Z,310
2017-07-19T09:28:12.625Z,310
2017-07-19T09:29:26.946Z,305
2017-07-19T09:30:58.137Z,300
2017-07-19T09:31:57.531Z,300
2017-07-19T09:33:12.775Z,300
2017-07-19T09:34:12.841Z,305
2017-07-19T09:35:12.846Z,305
2017-07-19T09:35:58.323Z,300
2017-07-19T09:36:58.322Z,305
2017-07-19T09:37:58.069Z,290
2017-07-19T09:38:58.117Z,280
2017-07-19T09:39:58.465Z,275
2017-07-19T09:40:58.498Z,275
2017-07-19T09:41:58.513Z,280
2017-07-19T09:43:12.840Z,285
2017-07-19T09:43:58.289Z,280
2017-07-19T09:44:58.303Z,285
2017-07-19T09:45:58.358Z,290
2017-07-19T09:47:13.302Z,290
2017-07-19T09:47:58.736Z,290
2017-07-19T09:48:58.772Z,285
2017-07-19T09:49:58.801Z,275
2017-07-19T09:50:58.838Z,285
2017-07-19T09:51:58.890Z,285
2017-07-19T09:52:59.000Z,285
2017-07-19T09:54:12.945Z,285
2017-07-19T09:54:58.993Z,280
2017-07-19T09:55:58.991Z,280
2017-07-19T09:56:59.058Z,280
2017-07-19T09:57:59.086Z,275
2017-07-19T10:00:13.779Z,275
2017-07-19T10:01:13.780Z,270
2017-07-19T10:01:59.246Z,270
2017-07-19T10:02:59.275Z,275
2017-07-19T10:03:59.298Z,275
2017-07-19T10:05:13.949Z,280
2017-07-19T10:05:59.368Z,280
2017-07-19T10:06:59.093Z,275
2017-07-19T10:07:59.451Z,280
2017-07-19T10:08:59.500Z,275
2017-07-19T10:09:58.918Z,275
2017-07-19T10:10:59.539Z,275
2017-07-19T10:11:59.578Z,280
2017-07-19T10:12:59.298Z,280
2017-07-19T10:14:14.250Z,270
2017-07-19T10:15:13.976Z,270
2017-07-19T10:15:59.409Z,265
2017-07-19T10:16:59.458Z,260
2017-07-19T10:17:59.777Z,255
2017-07-19T10:19:14.132Z,255
2017-07-19T10:19:59.828Z,260
2017-07-19T10:21:14.493Z,260
2017-07-19T10:21:59.931Z,265
2017-07-19T10:22:59.986Z,265
2017-07-19T10:23:59.990Z,260
2017-07-19T10:25:00.036Z,270
2017-07-19T10:26:14.671Z,255
2017-07-19T10:26:59.782Z,260
2017-07-19T10:28:00.158Z,265
2017-07-19T10:29:00.184Z,260
2017-07-19T10:29:59.909Z,265
2017-07-19T10:31:00.267Z,260
2017-07-19T10:33:00.334Z,255
2017-07-19T10:34:29.547Z,250
2017-07-19T10:35:00.376Z,250
2017-07-19T10:36:14.721Z,260
2017-07-19T10:37:15.047Z,265
2017-07-19T10:38:15.083Z,255
2017-07-19T10:39:00.230Z,260
2017-07-19T10:39:59.940Z,250
2017-07-19T10:41:00.596Z,255
2017-07-19T10:42:15.200Z,260
2017-07-19T10:43:00.674Z,250
2017-07-19T10:44:15.281Z,250
2017-07-19T10:45:00.108Z,250
2017-07-19T10:46:00.758Z,245
2017-07-19T10:47:00.487Z,240
2017-07-19T10:48:15.104Z,245
2017-07-19T10:50:15.504Z,245
2017-07-19T10:51:00.933Z,245
2017-07-19T10:52:00.664Z,245
2017-07-19T10:54:01.050Z,240
2017-07-19T10:55:01.043Z,235
2017-07-19T10:56:01.108Z,235
2017-07-19T10:57:01.144Z,235
2017-07-19T10:58:01.168Z,240
2017-07-19T10:59:01.217Z,230
2017-07-19T11:00:00.934Z,230
2017-07-19T11:01:00.950Z,230
2017-07-19T11:02:01.329Z,235
2017-07-19T11:03:01.346Z,230
2017-07-19T11:04:01.389Z,235
2017-07-19T11:05:01.394Z,235
2017-07-19T11:06:01.137Z,235
2017-07-19T11:08:16.119Z,235
2017-07-19T11:09:16.149Z,230
2017-07-19T11:10:16.161Z,230
2017-07-19T11:11:01.308Z,235
2017-07-19T11:12:01.324Z,230
2017-07-19T11:13:01.363Z,230
2017-07-19T11:14:01.709Z,230
2017-07-19T11:15:01.741Z,230
2017-07-19T11:16:01.772Z,230
2017-07-19T11:17:01.787Z,230
2017-07-19T11:18:01.512Z,225
2017-07-19T11:19:01.851Z,220
2017-07-19T11:20:01.900Z,210
2017-07-19T11:21:01.936Z,220
2017-07-19T11:22:01.970Z,210
2017-07-19T11:23:01.377Z,210
2017-07-19T11:24:02.044Z,210
2017-07-19T11:26:01.781Z,220
2017-07-19T11:27:02.133Z,220
2017-07-19T11:28:02.168Z,225
2017-07-19T11:29:02.185Z,225
2017-07-19T11:30:01.921Z,230
2017-07-19T11:31:02.269Z,235
2017-07-19T11:32:31.491Z,245
2017-07-19T11:33:02.355Z,245
2017-07-19T11:34:02.071Z,245
2017-07-19T11:35:02.070Z,245
2017-07-19T11:37:02.432Z,235
2017-07-19T11:38:17.111Z,235
2017-07-19T11:39:01.908Z,240
2017-07-19T11:40:16.848Z,240
2017-07-19T11:41:17.188Z,235
2017-07-19T11:42:02.613Z,245
2017-07-19T11:43:02.020Z,235
2017-07-19T11:44:02.065Z,220
2017-07-19T11:45:02.719Z,215
2017-07-19T11:46:17.361Z,195
2017-07-19T11:47:02.770Z,190
2017-07-19T11:48:02.507Z,200
2017-07-19T11:49:17.424Z,220
2017-07-19T11:50:02.882Z,225
2017-07-19T11:51:02.899Z,235
2017-07-19T11:52:02.942Z,235
2017-07-19T11:53:02.350Z,235
2017-07-19T11:54:02.690Z,230
2017-07-19T11:55:17.652Z,235
2017-07-19T11:56:17.373Z,230
2017-07-19T11:57:17.383Z,215
2017-07-19T11:58:03.151Z,200
2017-07-19T11:59:17.769Z,200
2017-07-19T12:00:02.866Z,200
2017-07-19T12:01:03.242Z,200
2017-07-19T12:02:03.243Z,200
2017-07-19T12:03:03.308Z,205
2017-07-19T12:04:02.993Z,210
2017-07-19T12:05:03.378Z,215
2017-07-19T12:06:03.050Z,215
2017-07-19T12:07:03.441Z,220
2017-07-19T12:08:03.126Z,225
2017-07-19T12:09:17.791Z,220
2017-07-19T12:10:03.216Z,220
2017-07-19T12:11:03.558Z,220
2017-07-19T12:12:18.183Z,225
2017-07-19T12:13:18.183Z,235
2017-07-19T12:14:03.656Z,240
2017-07-19T12:15:03.673Z,245
2017-07-19T12:16:03.414Z,255
2017-07-19T12:17:18.340Z,260
2017-07-19T12:18:03.782Z,265
2017-07-19T12:19:03.507Z,265
2017-07-19T12:20:18.436Z,270
2017-07-19T12:21:03.845Z,270
2017-07-19T12:22:03.590Z,275
2017-07-19T12:24:03.963Z,270
2017-07-19T12:25:18.584Z,270
2017-07-19T12:26:18.376Z,265
2017-07-19T12:27:04.069Z,260
2017-07-19T12:28:18.689Z,250
2017-07-19T12:29:03.824Z,255
2017-07-19T12:30:03.829Z,250
2017-07-19T12:31:04.206Z,255
2017-07-19T12:32:04.223Z,250
2017-07-19T12:33:03.944Z,250
2017-07-19T12:34:03.979Z,255
2017-07-19T12:35:18.922Z,250
2017-07-19T12:36:18.947Z,240
2017-07-19T12:37:19.015Z,240
2017-07-19T12:38:04.433Z,240
2017-07-19T12:39:18.739Z,240
2017-07-19T12:40:04.157Z,245
2017-07-19T12:41:04.499Z,240
2017-07-19T12:42:04.239Z,240
2017-07-19T12:43:19.186Z,240
2017-07-19T12:44:04.312Z,240
2017-07-19T12:45:04.324Z,235
2017-07-19T12:46:04.697Z,235
2017-07-19T12:47:04.375Z,225
2017-07-19T12:48:04.725Z,220
2017-07-19T12:49:04.771Z,215
2017-07-19T12:50:04.783Z,210
2017-07-19T12:51:04.528Z,205
2017-07-19T12:52:04.562Z,205
2017-07-19T12:53:04.900Z,190
2017-07-19T12:54:04.318Z,195
2017-07-19T12:55:04.959Z,200
2017-07-19T12:56:05.052Z,200
2017-07-19T12:58:05.070Z,190
2017-07-19T12:59:05.065Z,185
2017-07-19T13:00:04.845Z,185
2017-07-19T13:01:05.155Z,185
2017-07-19T13:02:04.581Z,185
2017-07-19T13:03:19.494Z,175
2017-07-19T13:04:19.840Z,175
2017-07-19T13:05:04.981Z,170
2017-07-19T13:06:05.336Z,165
2017-07-19T13:07:05.358Z,165
2017-07-19T13:08:05.372Z,160
2017-07-19T13:09:05.420Z,160
2017-07-19T13:10:05.455Z,160
2017-07-19T13:11:04.863Z,170
2017-07-19T13:12:20.084Z,175
2017-07-19T13:13:05.555Z,180
2017-07-19T13:14:05.549Z,195
2017-07-19T13:15:20.215Z,210
2017-07-19T13:16:05.314Z,220
2017-07-19T13:17:05.685Z,225
2017-07-19T13:18:05.691Z,230
2017-07-19T13:19:05.744Z,240
2017-07-19T13:20:05.760Z,250
2017-07-19T13:21:05.805Z,240
2017-07-19T13:22:20.105Z,260
2017-07-19T13:23:05.881Z,265
2017-07-19T13:24:05.898Z,245
2017-07-19T13:26:05.946Z,255
2017-07-19T13:27:05.948Z,255
2017-07-19T13:28:06.032Z,250
2017-07-19T13:29:05.428Z,235
2017-07-19T13:30:20.691Z,235
2017-07-19T13:31:20.713Z,180
2017-07-19T13:32:06.133Z,185
2017-07-19T13:33:06.175Z,230
2017-07-19T13:34:06.210Z,225
2017-07-19T13:35:06.252Z,230
2017-07-19T13:36:05.968Z,220
2017-07-19T13:37:06.008Z,220
2017-07-19T13:38:20.977Z,215
2017-07-19T13:39:05.750Z,210
2017-07-19T13:40:20.997Z,210
2017-07-19T13:41:05.834Z,205
2017-07-19T13:42:06.157Z,210
2017-07-19T13:43:06.515Z,205
2017-07-19T13:44:06.506Z,205
2017-07-19T13:45:06.573Z,205
2017-07-19T13:46:06.581Z,205
2017-07-19T13:47:21.244Z,205
2017-07-19T13:48:06.658Z,205
2017-07-19T13:49:06.738Z,190
2017-07-19T13:50:06.690Z,165
2017-07-19T13:51:06.731Z,110
2017-07-19T13:52:21.389Z,110
2017-07-19T13:53:06.513Z,130
2017-07-19T13:54:21.457Z,185
2017-07-19T13:55:06.560Z,185
2017-07-19T13:56:06.927Z,190
2017-07-19T13:58:06.651Z,185
2017-07-19T13:59:06.365Z,110
2017-07-19T14:00:06.742Z,110
2017-07-19T14:01:06.754Z,110
2017-07-19T14:02:21.677Z,190
2017-07-19T14:03:21.415Z,190
2017-07-19T14:04:21.753Z,190
2017-07-19T14:05:06.916Z,190
2017-07-19T14:06:06.600Z,185
2017-07-19T14:07:06.627Z,180
2017-07-19T14:08:07.283Z,180
2017-07-19T14:09:21.935Z,180
2017-07-19T14:11:06.450Z,175
2017-07-19T14:12:07.115Z,175
2017-07-19T14:13:07.461Z,175
2017-07-19T14:14:06.841Z,170
2017-07-19T14:15:07.182Z,165
2017-07-19T14:17:07.261Z,115
2017-07-19T14:18:22.194Z,130
2017-07-19T14:19:07.298Z,105
2017-07-19T14:20:07.359Z,105
2017-07-19T14:21:07.349Z,100
2017-07-19T14:22:07.708Z,105
2017-07-19T14:24:07.476Z,100
2017-07-19T14:25:07.518Z,100
2017-07-19T14:26:22.121Z,100
2017-07-19T14:27:22.168Z,105
2017-07-19T14:28:22.191Z,155
2017-07-19T14:29:07.942Z,165
2017-07-19T14:30:07.648Z,170
2017-07-19T14:31:07.994Z,175
2017-07-19T14:32:08.040Z,170
2017-07-19T14:33:07.736Z,175
2017-07-19T14:34:07.471Z,170
2017-07-19T14:35:07.810Z,175
2017-07-19T14:36:07.529Z,175
2017-07-19T14:37:08.180Z,175
2017-07-19T14:38:22.781Z,175
2017-07-19T14:39:07.930Z,170
2017-07-19T14:40:08.262Z,170
2017-07-19T14:41:07.701Z,170
2017-07-19T14:42:08.327Z,170
2017-07-19T14:43:08.043Z,175
2017-07-19T14:44:22.677Z,175
2017-07-19T14:45:08.123Z,175
2017-07-19T14:46:08.262Z,175
2017-07-19T14:47:08.174Z,180
2017-07-19T14:48:08.543Z,175
2017-07-19T14:49:07.919Z,165
2017-07-19T14:50:22.873Z,170
2017-07-19T14:51:08.275Z,170
2017-07-19T14:52:23.236Z,165